Terminal Aerodrome Forecast
Issued by NWS Flagstaff, AZ

Home | Current Version | Previous Version | Text Only | Print | Product List | Glossary On
Versions: 1 2 3 4 5 6 7 8 9 10 11 12 13 14 15 16 17
859
FTUS45 KFGZ 051724
TAFFLG
TAF
KFLG 051724Z 0518/0618 20020G30KT P6SM BKN250
     FM060300 20010G20KT P6SM SCT250
     FM061500 20020G30KT P6SM OVC250=

USA.gov is the U.S. government's official web portal to all federal, state and local government web resources and services.